createdAt,value
2023-04-16T00:00:25.488Z,14.57
2023-04-16T00:02:56.052Z,14.82
2023-04-16T00:05:27.551Z,13.63
2023-04-16T00:07:57.879Z,13.98
2023-04-16T00:10:31.143Z,13.60
2023-04-16T00:13:01.718Z,13.90
2023-04-16T00:15:32.187Z,15.10
2023-04-16T00:18:02.685Z,16.70
2023-04-16T00:20:33.056Z,13.80
2023-04-16T00:23:03.567Z,13.82
2023-04-16T00:25:36.524Z,13.52
2023-04-16T00:28:09.024Z,14.07
2023-04-16T00:30:40.407Z,14.45
2023-04-16T00:33:11.002Z,14.38
2023-04-16T00:35:41.364Z,14.52
2023-04-16T00:38:12.375Z,16.13
2023-04-16T00:40:45.353Z,14.75
2023-04-16T00:43:24.930Z,12.30
2023-04-16T00:45:57.036Z,13.27
2023-04-16T00:48:28.325Z,15.20
2023-04-16T00:50:59.217Z,12.55
2023-04-16T00:53:30.141Z,13.68
2023-04-16T00:56:03.655Z,14.07
2023-04-16T00:58:34.977Z,13.85
2023-04-16T01:01:05.796Z,12.10
2023-04-16T01:03:42.972Z,12.95
2023-04-16T01:06:14.350Z,13.00
2023-04-16T01:08:44.855Z,13.25
2023-04-16T01:11:18.478Z,13.00
2023-04-16T01:13:48.880Z,12.70
2023-04-16T01:16:19.504Z,12.88
2023-04-16T01:18:50.552Z,12.57
2023-04-16T01:21:23.564Z,12.43
2023-04-16T01:23:53.933Z,13.23
2023-04-16T01:26:24.533Z,12.52
2023-04-16T01:28:54.861Z,12.13
2023-04-16T01:31:25.235Z,12.38
2023-04-16T01:34:25.515Z,11.48
2023-04-16T01:36:58.517Z,12.48
2023-04-16T01:39:29.028Z,11.75
2023-04-16T01:42:01.589Z,12.68
2023-04-16T01:44:31.898Z,11.93
2023-04-16T01:47:02.415Z,10.20
2023-04-16T01:49:34.079Z,13.05
2023-04-16T01:52:08.666Z,9.18
2023-04-16T01:54:39.106Z,10.88
2023-04-16T01:57:09.652Z,9.55
2023-04-16T01:59:40.199Z,12.52
2023-04-16T02:02:14.990Z,10.02
2023-04-16T02:04:48.095Z,11.27
2023-04-16T02:07:21.101Z,11.55
2023-04-16T02:09:51.931Z,11.55
2023-04-16T02:12:23.050Z,11.05
2023-04-16T02:14:53.556Z,13.65
2023-04-16T02:17:24.402Z,12.23
2023-04-16T02:20:08.199Z,11.73
2023-04-16T02:25:17.358Z,11.10
2023-04-16T02:27:47.896Z,13.60
2023-04-16T02:30:35.043Z,10.98
2023-04-16T02:33:07.797Z,12.80
2023-04-16T02:35:39.488Z,11.20
2023-04-16T02:38:12.857Z,13.00
2023-04-16T02:40:44.016Z,12.85
2023-04-16T02:43:14.926Z,12.82
2023-04-16T02:45:45.301Z,13.57
2023-04-16T02:48:15.726Z,12.25
2023-04-16T02:50:46.142Z,13.38
2023-04-16T02:53:19.101Z,12.18
2023-04-16T02:55:55.503Z,14.77
2023-04-16T02:58:28.085Z,13.65
2023-04-16T03:00:58.793Z,14.63
2023-04-16T03:03:29.302Z,12.65
2023-04-16T03:05:59.944Z,12.95
2023-04-16T03:08:32.925Z,13.05
2023-04-16T03:11:03.234Z,15.32
2023-04-16T03:13:33.643Z,14.10
2023-04-16T03:16:04.300Z,13.45
2023-04-16T03:18:34.648Z,14.00
2023-04-16T03:21:05.195Z,15.25
2023-04-16T03:23:38.645Z,12.68
2023-04-16T03:26:09.295Z,13.75
2023-04-16T03:28:39.717Z,12.02
2023-04-16T03:31:10.151Z,18.40
2023-04-16T03:33:41.479Z,14.68
2023-04-16T03:36:12.984Z,13.95
2023-04-16T03:38:45.943Z,14.02
2023-04-16T03:41:17.580Z,13.23
2023-04-16T03:43:48.273Z,12.80
2023-04-16T03:46:19.547Z,12.88
2023-04-16T03:48:49.924Z,14.63
2023-04-16T03:51:20.914Z,14.07
2023-04-16T03:53:54.121Z,12.18
2023-04-16T03:56:24.570Z,16.63
2023-04-16T03:58:56.318Z,14.27
2023-04-16T04:01:26.731Z,14.10
2023-04-16T04:03:57.357Z,15.88
2023-04-16T04:06:27.915Z,15.13
2023-04-16T04:09:01.119Z,19.15
2023-04-16T04:11:31.788Z,15.98
2023-04-16T04:14:02.268Z,17.17
2023-04-16T04:16:32.851Z,17.58
2023-04-16T04:19:03.444Z,17.13
2023-04-16T04:21:34.426Z,18.23
2023-04-16T04:24:09.406Z,16.60
2023-04-16T04:26:40.002Z,18.70
2023-04-16T04:29:10.619Z,16.83
2023-04-16T04:31:41.194Z,15.80
2023-04-16T04:34:11.728Z,16.25
2023-04-16T04:36:42.237Z,17.60
2023-04-16T04:39:15.123Z,16.88
2023-04-16T04:41:47.399Z,16.58
2023-04-16T04:44:17.823Z,17.70
2023-04-16T04:46:48.237Z,15.93
2023-04-16T04:49:18.573Z,17.40
2023-04-16T04:51:48.995Z,16.00
2023-04-16T04:54:22.089Z,17.95
2023-04-16T04:56:52.678Z,17.95
2023-04-16T04:59:24.092Z,17.13
2023-04-16T05:01:54.878Z,17.33
2023-04-16T05:04:25.265Z,16.83
2023-04-16T05:06:55.752Z,17.33
2023-04-16T05:09:28.724Z,19.13
2023-04-16T05:11:59.126Z,20.10
2023-04-16T05:14:29.486Z,19.77
2023-04-16T05:16:59.961Z,19.73
2023-04-16T05:19:30.425Z,21.33
2023-04-16T05:22:02.954Z,18.58
2023-04-16T05:24:36.100Z,22.27
2023-04-16T05:27:06.641Z,20.13
2023-04-16T05:29:37.017Z,22.02
2023-04-16T05:32:07.645Z,21.00
2023-04-16T05:34:38.230Z,21.55
2023-04-16T05:37:08.576Z,24.35
2023-04-16T05:39:41.529Z,27.50
2023-04-16T05:42:11.990Z,24.88
2023-04-16T05:44:43.808Z,26.65
2023-04-16T05:47:14.388Z,26.88
2023-04-16T05:49:44.870Z,27.80
2023-04-16T05:52:15.545Z,31.25
2023-04-16T05:54:48.493Z,30.02
2023-04-16T05:57:18.977Z,36.00
2023-04-16T05:59:49.537Z,29.50
2023-04-16T06:02:20.103Z,36.35
2023-04-16T06:04:50.694Z,33.97
2023-04-16T06:07:21.120Z,34.35
2023-04-16T06:09:54.069Z,34.25
2023-04-16T06:12:24.669Z,34.20
2023-04-16T06:14:55.366Z,39.40
2023-04-16T06:17:26.091Z,36.42
2023-04-16T06:19:56.686Z,36.45
2023-04-16T06:22:27.890Z,31.88
2023-04-16T06:25:01.076Z,34.00
2023-04-16T06:27:31.477Z,33.47
2023-04-16T06:30:01.864Z,33.97
2023-04-16T06:32:32.350Z,33.90
2023-04-16T06:35:02.855Z,34.20
2023-04-16T06:37:33.344Z,33.47
2023-04-16T06:40:06.972Z,34.83
2023-04-16T06:42:37.412Z,33.65
2023-04-16T06:45:09.795Z,35.40
2023-04-16T06:47:40.284Z,35.13
2023-04-16T06:50:12.069Z,33.78
2023-04-16T06:52:42.433Z,37.45
2023-04-16T06:55:15.828Z,35.55
2023-04-16T06:57:46.333Z,36.17
2023-04-16T07:00:17.460Z,35.83
2023-04-16T07:02:48.081Z,32.38
2023-04-16T07:05:18.614Z,35.20
2023-04-16T07:07:48.945Z,35.08
2023-04-16T07:10:21.853Z,32.03
2023-04-16T07:12:52.239Z,31.17
2023-04-16T07:15:23.016Z,31.15
2023-04-16T07:17:54.214Z,33.10
2023-04-16T07:20:24.672Z,30.33
2023-04-16T07:22:55.201Z,31.98
2023-04-16T07:25:28.458Z,32.17
2023-04-16T07:27:58.981Z,33.22
2023-04-16T07:30:34.249Z,32.70
2023-04-16T07:33:05.996Z,33.33
2023-04-16T07:35:36.643Z,32.17
2023-04-16T07:38:07.003Z,37.40
2023-04-16T07:40:40.284Z,31.02
2023-04-16T07:43:10.771Z,33.72
2023-04-16T07:45:41.551Z,32.25
2023-04-16T07:48:12.060Z,30.77
2023-04-16T07:50:43.869Z,29.63
2023-04-16T07:53:14.826Z,29.65
2023-04-16T07:55:47.786Z,29.33
2023-04-16T07:58:18.284Z,31.92
2023-04-16T08:00:50.810Z,29.33
2023-04-16T08:03:21.710Z,28.20
2023-04-16T08:05:52.432Z,25.42
2023-04-16T08:08:22.892Z,29.83
2023-04-16T08:10:56.495Z,27.70
2023-04-16T08:13:27.395Z,24.98
2023-04-16T08:15:57.759Z,27.83
2023-04-16T08:18:28.402Z,26.40
2023-04-16T08:20:59.048Z,24.85
2023-04-16T08:23:29.874Z,24.05
2023-04-16T08:26:03.978Z,24.27
2023-04-16T08:28:35.306Z,24.38
2023-04-16T08:31:06.013Z,22.17
2023-04-16T08:33:36.416Z,24.70
2023-04-16T08:36:07.437Z,25.33
2023-04-16T08:38:37.854Z,22.08
2023-04-16T08:41:15.582Z,24.52
2023-04-16T08:43:48.480Z,23.38
2023-04-16T08:46:20.700Z,22.65
2023-04-16T08:48:56.934Z,24.67
2023-04-16T08:51:28.275Z,23.17
2023-04-16T08:54:08.350Z,21.65
2023-04-16T08:56:43.297Z,25.48
2023-04-16T08:59:14.166Z,22.52
2023-04-16T09:01:45.657Z,24.85
2023-04-16T09:04:18.999Z,22.05
2023-04-16T09:06:50.781Z,26.02
2023-04-16T09:09:23.432Z,22.88
2023-04-16T09:11:58.942Z,21.10
2023-04-16T09:14:29.303Z,22.23
2023-04-16T09:17:01.348Z,22.10
2023-04-16T09:19:31.811Z,24.27
2023-04-16T09:22:02.452Z,26.48
2023-04-16T09:24:33.464Z,24.48
2023-04-16T09:27:06.700Z,26.25
2023-04-16T09:29:38.794Z,21.75
2023-04-16T09:32:12.355Z,26.50
2023-04-16T09:35:00.798Z,25.17
2023-04-16T09:37:32.776Z,23.52
2023-04-16T09:40:05.048Z,23.40
2023-04-16T09:42:40.306Z,24.42
2023-04-16T09:45:11.840Z,24.23
2023-04-16T09:47:44.509Z,30.95
2023-04-16T09:50:20.333Z,26.05
2023-04-16T09:52:53.270Z,22.33
2023-04-16T09:55:29.266Z,23.15
2023-04-16T09:58:05.337Z,22.80
2023-04-16T10:00:36.027Z,27.17
2023-04-16T10:03:14.301Z,23.40
2023-04-16T10:05:45.061Z,24.33
2023-04-16T10:08:16.622Z,26.55
2023-04-16T10:10:47.727Z,25.50
2023-04-16T10:13:21.015Z,25.80
2023-04-16T10:15:52.364Z,28.13
2023-04-16T10:18:23.478Z,28.00
2023-04-16T10:20:54.781Z,23.52
2023-04-16T10:23:26.054Z,27.80
2023-04-16T10:25:58.183Z,25.00
2023-04-16T10:28:31.962Z,26.77
2023-04-16T10:31:04.982Z,26.80
2023-04-16T10:33:38.341Z,31.13
2023-04-16T10:36:13.700Z,26.58
2023-04-16T10:38:49.252Z,24.08
2023-04-16T10:41:19.908Z,23.08
2023-04-16T10:43:54.092Z,27.20
2023-04-16T10:46:27.082Z,27.42
2023-04-16T10:48:59.875Z,23.85
2023-04-16T10:51:33.327Z,23.80
2023-04-16T10:54:22.771Z,28.02
2023-04-16T10:56:54.104Z,22.85
2023-04-16T10:59:28.597Z,21.90
2023-04-16T11:02:02.576Z,21.63
2023-04-16T11:04:37.733Z,21.23
2023-04-16T11:07:20.344Z,18.70
2023-04-16T11:09:56.855Z,20.83
2023-04-16T11:12:30.246Z,21.80
2023-04-16T11:15:06.710Z,17.13
2023-04-16T11:17:41.955Z,22.70
2023-04-16T11:20:20.436Z,21.55
2023-04-16T11:22:51.832Z,17.48
2023-04-16T11:25:26.419Z,20.15
2023-04-16T11:27:58.084Z,16.77
2023-04-16T11:30:36.844Z,15.63
2023-04-16T11:33:14.171Z,18.02
2023-04-16T11:35:46.207Z,15.00
2023-04-16T11:38:16.822Z,16.40
2023-04-16T11:40:47.951Z,17.05
2023-04-16T11:43:20.148Z,13.75
2023-04-16T11:46:10.324Z,13.55
2023-04-16T11:48:53.304Z,13.57
2023-04-16T11:51:24.122Z,17.33
2023-04-16T11:53:56.989Z,16.00
2023-04-16T11:56:31.239Z,15.30
2023-04-16T11:59:15.685Z,14.45
2023-04-16T12:01:51.655Z,11.88
2023-04-16T12:04:25.194Z,14.02
2023-04-16T12:07:12.629Z,14.00
2023-04-16T12:09:45.524Z,16.83
2023-04-16T12:12:32.589Z,11.45
2023-04-16T12:15:05.980Z,11.20
2023-04-16T12:17:41.132Z,13.97
2023-04-16T12:20:14.347Z,10.75
2023-04-16T12:22:49.945Z,10.05
2023-04-16T12:25:21.666Z,12.50
2023-04-16T12:27:54.384Z,10.02
2023-04-16T12:30:27.857Z,10.80
2023-04-16T12:33:21.512Z,10.05
2023-04-16T12:35:52.784Z,8.70
2023-04-16T12:38:24.701Z,10.10
2023-04-16T12:40:57.397Z,9.60
2023-04-16T12:43:28.725Z,9.68
2023-04-16T12:45:59.271Z,9.40
2023-04-16T12:48:32.887Z,12.00
2023-04-16T12:51:03.319Z,9.38
2023-04-16T12:53:33.708Z,8.00
2023-04-16T12:56:04.386Z,11.07
2023-04-16T12:58:34.852Z,8.80
2023-04-16T13:01:05.375Z,11.10
2023-04-16T13:03:38.674Z,8.43
2023-04-16T13:06:09.240Z,10.57
2023-04-16T13:08:40.408Z,10.18
2023-04-16T13:11:11.731Z,9.52
2023-04-16T13:13:42.222Z,8.82
2023-04-16T13:16:12.934Z,9.90
2023-04-16T13:18:46.023Z,10.80
2023-04-16T13:21:16.753Z,10.43
2023-04-16T13:23:47.121Z,9.45
2023-04-16T13:26:17.697Z,10.90
2023-04-16T13:28:48.181Z,11.68
2023-04-16T13:31:22.258Z,10.57
2023-04-16T13:33:55.747Z,10.88
2023-04-16T13:36:27.641Z,10.90
2023-04-16T13:38:58.206Z,14.20
2023-04-16T13:41:28.953Z,13.23
2023-04-16T13:43:59.338Z,12.00
2023-04-16T13:46:29.934Z,12.32
2023-04-16T13:49:02.998Z,11.70
2023-04-16T13:51:33.391Z,12.88
2023-04-16T13:54:03.904Z,10.18
2023-04-16T13:56:34.277Z,11.98
2023-04-16T13:59:04.904Z,11.23
2023-04-16T14:01:35.272Z,12.43
2023-04-16T14:04:09.812Z,12.75
2023-04-16T14:06:40.410Z,14.27
2023-04-16T14:09:11.190Z,14.18
2023-04-16T14:11:42.010Z,13.43
2023-04-16T14:14:12.557Z,15.77
2023-04-16T14:16:43.290Z,11.43
2023-04-16T14:19:16.621Z,11.57
2023-04-16T14:21:47.079Z,12.43
2023-04-16T14:24:17.483Z,14.48
2023-04-16T14:26:48.120Z,12.45
2023-04-16T14:29:18.630Z,13.93
2023-04-16T14:31:50.483Z,19.20
2023-04-16T14:34:23.744Z,14.77
2023-04-16T14:36:54.200Z,14.77
2023-04-16T14:39:25.109Z,15.02
2023-04-16T14:41:55.476Z,16.77
2023-04-16T14:44:25.937Z,15.40
2023-04-16T14:46:56.632Z,16.55
2023-04-16T14:49:29.796Z,15.85
2023-04-16T14:52:02.249Z,21.80
2023-04-16T14:54:32.609Z,17.83
2023-04-16T14:57:03.741Z,19.65
2023-04-16T14:59:34.412Z,19.75
2023-04-16T15:02:05.142Z,19.52
2023-04-16T15:04:38.439Z,19.58
2023-04-16T15:07:08.926Z,17.65
2023-04-16T15:09:39.276Z,24.33
2023-04-16T15:12:09.881Z,20.05
2023-04-16T15:14:40.522Z,21.77
2023-04-16T15:17:11.055Z,22.17
2023-04-16T15:19:44.231Z,23.77
2023-04-16T15:22:15.073Z,21.48
2023-04-16T15:24:45.566Z,23.42
2023-04-16T15:27:17.784Z,23.25
2023-04-16T15:29:51.136Z,22.95
2023-04-16T15:32:21.769Z,23.23
2023-04-16T15:34:55.135Z,22.33
2023-04-16T15:37:25.610Z,25.05
2023-04-16T15:39:56.922Z,23.38
2023-04-16T15:42:27.610Z,23.73
2023-04-16T15:44:58.010Z,23.38
2023-04-16T15:47:28.599Z,26.95
2023-04-16T15:50:04.753Z,24.35
2023-04-16T15:52:35.149Z,25.45
2023-04-16T15:55:05.791Z,27.58
2023-04-16T15:57:36.291Z,31.65
2023-04-16T16:00:13.555Z,27.10
2023-04-16T16:02:44.591Z,28.52
2023-04-16T16:05:18.919Z,24.70
2023-04-16T16:07:49.436Z,28.52
2023-04-16T16:10:20.485Z,29.83
2023-04-16T16:12:50.946Z,32.10
2023-04-16T16:15:21.835Z,34.97
2023-04-16T16:17:53.744Z,28.58
2023-04-16T16:20:27.630Z,31.17
2023-04-16T16:22:58.216Z,31.95
2023-04-16T16:25:29.240Z,35.28
2023-04-16T16:27:59.732Z,30.55
2023-04-16T16:30:30.270Z,41.03
2023-04-16T16:33:01.006Z,28.75
2023-04-16T16:35:34.841Z,29.10
2023-04-16T16:38:05.450Z,31.95
2023-04-16T16:40:36.265Z,26.17
2023-04-16T16:43:06.723Z,34.63
2023-04-16T16:45:37.164Z,32.33
2023-04-16T16:48:08.090Z,34.65
2023-04-16T16:50:41.293Z,29.80
2023-04-16T16:53:11.696Z,27.80
2023-04-16T16:55:42.155Z,28.63
2023-04-16T16:58:12.679Z,32.05
2023-04-16T17:00:43.078Z,28.83
2023-04-16T17:03:13.977Z,28.58
2023-04-16T17:05:47.179Z,30.70
2023-04-16T17:08:17.638Z,28.80
2023-04-16T17:10:48.073Z,29.90
2023-04-16T17:13:19.916Z,30.30
2023-04-16T17:15:50.771Z,29.40
2023-04-16T17:18:21.148Z,35.10
2023-04-16T17:20:54.245Z,29.67
2023-04-16T17:23:24.696Z,31.83
2023-04-16T17:25:55.233Z,28.27
2023-04-16T17:28:26.197Z,32.28
2023-04-16T17:30:57.528Z,31.45
2023-04-16T17:33:28.066Z,31.92
2023-04-16T17:36:01.534Z,32.13
2023-04-16T17:38:32.026Z,32.03
2023-04-16T17:41:02.768Z,29.40
2023-04-16T17:43:33.137Z,31.98
2023-04-16T17:46:03.853Z,31.60
2023-04-16T17:48:34.313Z,32.60
2023-04-16T17:51:13.170Z,32.20
2023-04-16T17:53:44.823Z,33.47
2023-04-16T17:56:16.193Z,35.40
2023-04-16T17:58:46.783Z,33.90
2023-04-16T18:01:17.173Z,31.33
2023-04-16T18:03:47.938Z,29.77
2023-04-16T18:06:21.220Z,29.50
2023-04-16T18:08:51.646Z,33.13
2023-04-16T18:11:22.180Z,35.40
2023-04-16T18:13:53.872Z,32.38
2023-04-16T18:16:24.897Z,32.58
2023-04-16T18:18:55.330Z,27.48
2023-04-16T18:21:29.938Z,28.77
2023-04-16T18:24:03.706Z,29.92
2023-04-16T18:26:36.228Z,27.48
2023-04-16T18:29:07.292Z,32.35
2023-04-16T18:31:37.954Z,30.48
2023-04-16T18:34:08.550Z,28.70
2023-04-16T18:36:41.608Z,30.55
2023-04-16T18:39:12.165Z,27.02
2023-04-16T18:41:43.762Z,28.23
2023-04-16T18:44:15.055Z,31.45
2023-04-16T18:46:46.352Z,29.95
2023-04-16T18:49:16.913Z,27.30
2023-04-16T18:51:50.041Z,29.60
2023-04-16T18:54:20.587Z,30.58
2023-04-16T18:56:51.095Z,26.90
2023-04-16T18:59:21.616Z,27.92
2023-04-16T19:01:52.171Z,24.67
2023-04-16T19:04:22.753Z,28.42
2023-04-16T19:06:56.037Z,26.85
2023-04-16T19:09:29.277Z,25.27
2023-04-16T19:11:59.650Z,27.35
2023-04-16T19:14:30.195Z,27.00
2023-04-16T19:17:00.712Z,23.80
2023-04-16T19:19:31.349Z,28.05
2023-04-16T19:22:04.437Z,27.38
2023-04-16T19:24:34.954Z,26.02
2023-04-16T19:27:05.337Z,25.13
2023-04-16T19:29:37.119Z,28.23
2023-04-16T19:32:08.212Z,25.23
2023-04-16T19:34:38.816Z,24.15
2023-04-16T19:37:11.975Z,23.42
2023-04-16T19:39:42.508Z,24.40
2023-04-16T19:42:13.081Z,26.05
2023-04-16T19:44:43.548Z,27.50
2023-04-16T19:47:14.084Z,31.52
2023-04-16T19:49:44.926Z,25.23
2023-04-16T19:52:18.232Z,28.75
2023-04-16T19:54:48.807Z,22.90
2023-04-16T19:57:19.447Z,27.38
2023-04-16T19:59:49.836Z,22.02
2023-04-16T20:02:20.265Z,27.05
2023-04-16T20:04:50.920Z,23.20
2023-04-16T20:07:24.003Z,20.50
2023-04-16T20:09:54.934Z,22.33
2023-04-16T20:12:25.786Z,20.42
2023-04-16T20:14:56.469Z,18.50
2023-04-16T20:17:27.057Z,18.98
2023-04-16T20:20:01.002Z,22.02
2023-04-16T20:22:34.020Z,22.80
2023-04-16T20:25:05.660Z,17.25
2023-04-16T20:27:38.047Z,18.83
2023-04-16T20:30:10.350Z,28.10
2023-04-16T20:32:41.377Z,17.30
2023-04-16T20:35:15.582Z,17.67
2023-04-16T20:37:48.651Z,18.45
2023-04-16T20:40:19.428Z,18.65
2023-04-16T20:42:52.302Z,19.40
2023-04-16T20:45:24.539Z,18.38
2023-04-16T20:47:55.161Z,24.45
2023-04-16T20:50:25.663Z,18.17
2023-04-16T20:52:58.832Z,20.25
2023-04-16T20:55:32.553Z,18.20
2023-04-16T20:58:02.947Z,17.15
2023-04-16T21:00:33.536Z,18.92
2023-04-16T21:03:04.023Z,17.95
2023-04-16T21:05:34.815Z,21.10
2023-04-16T21:08:08.596Z,16.67
2023-04-16T21:10:39.180Z,18.55
2023-04-16T21:13:10.812Z,18.33
2023-04-16T21:15:42.032Z,16.50
2023-04-16T21:18:13.889Z,19.10
2023-04-16T21:20:44.343Z,18.17
2023-04-16T21:23:17.442Z,18.73
2023-04-16T21:25:47.905Z,17.15
2023-04-16T21:28:18.378Z,16.90
2023-04-16T21:30:48.722Z,18.95
2023-04-16T21:33:19.029Z,18.40
2023-04-16T21:35:55.072Z,17.83
2023-04-16T21:38:28.120Z,19.75
2023-04-16T21:40:58.657Z,20.83
2023-04-16T21:43:30.749Z,20.38
2023-04-16T21:46:01.399Z,19.13
2023-04-16T21:48:31.791Z,22.58
2023-04-16T21:51:06.695Z,16.20
2023-04-16T21:53:40.029Z,18.02
2023-04-16T21:56:11.054Z,17.67
2023-04-16T21:58:41.429Z,17.17
2023-04-16T22:01:11.790Z,18.40
2023-04-16T22:03:42.654Z,18.17
2023-04-16T22:06:14.275Z,24.38
2023-04-16T22:08:47.269Z,20.92
2023-04-16T22:11:17.762Z,18.35
2023-04-16T22:13:49.656Z,17.75
2023-04-16T22:16:19.981Z,19.92
2023-04-16T22:18:50.393Z,16.65
2023-04-16T22:21:20.748Z,19.15
2023-04-16T22:23:53.770Z,19.13
2023-04-16T22:26:24.139Z,19.65
2023-04-16T22:28:54.709Z,18.02
2023-04-16T22:31:25.118Z,15.63
2023-04-16T22:33:55.727Z,18.95
2023-04-16T22:36:26.612Z,20.05
2023-04-16T22:38:59.549Z,17.48
2023-04-16T22:41:30.080Z,17.77
2023-04-16T22:44:00.539Z,16.45
2023-04-16T22:46:31.158Z,19.05
2023-04-16T22:49:01.753Z,17.58
2023-04-16T22:51:32.161Z,17.10
2023-04-16T22:54:05.378Z,16.52
2023-04-16T22:56:35.850Z,20.75
2023-04-16T22:59:06.437Z,19.85
2023-04-16T23:01:37.568Z,17.08
2023-04-16T23:04:08.283Z,19.77
2023-04-16T23:06:39.245Z,17.10
2023-04-16T23:09:12.595Z,18.48
2023-04-16T23:11:43.269Z,16.50
2023-04-16T23:14:16.210Z,18.60
2023-04-16T23:16:47.424Z,21.08
2023-04-16T23:19:17.902Z,19.83
2023-04-16T23:21:50.633Z,16.00
2023-04-16T23:24:23.909Z,17.80
2023-04-16T23:26:55.039Z,18.95
2023-04-16T23:29:25.479Z,16.88
2023-04-16T23:31:55.972Z,18.08
2023-04-16T23:34:26.519Z,19.77
2023-04-16T23:36:56.985Z,18.77
2023-04-16T23:39:30.093Z,16.83
2023-04-16T23:42:00.579Z,16.08
2023-04-16T23:44:30.944Z,20.02
2023-04-16T23:47:01.535Z,23.67
2023-04-16T23:49:32.117Z,19.67
2023-04-16T23:52:02.474Z,19.40
2023-04-16T23:54:35.633Z,18.80
2023-04-16T23:57:05.943Z,18.65
2023-04-16T23:59:36.417Z,18.70
